createdAt,value
2022-10-29T00:01:19.620Z,16.80
2022-10-29T00:03:51.223Z,16.60
2022-10-29T00:06:22.238Z,16.70
2022-10-29T00:08:52.044Z,16.60
2022-10-29T00:11:24.401Z,16.50
2022-10-29T00:14:02.076Z,16.50
2022-10-29T00:16:37.409Z,16.40
2022-10-29T00:19:09.609Z,16.40
2022-10-29T00:21:40.444Z,16.30
2022-10-29T00:24:12.808Z,16.40
2022-10-29T00:26:43.734Z,16.30
2022-10-29T00:29:13.067Z,16.40
2022-10-29T00:31:45.224Z,16.40
2022-10-29T00:34:15.355Z,16.40
2022-10-29T00:36:46.405Z,16.30
2022-10-29T00:39:21.130Z,16.20
2022-10-29T00:41:51.835Z,16.30
2022-10-29T00:44:22.163Z,16.20
2022-10-29T00:47:41.563Z,16.10
2022-10-29T00:50:15.077Z,16.00
2022-10-29T00:52:49.765Z,16.10
2022-10-29T00:55:21.173Z,16.10
2022-10-29T00:57:57.295Z,16.10
2022-10-29T01:00:26.827Z,15.90
2022-10-29T01:03:05.596Z,16.00
2022-10-29T01:05:43.284Z,16.10
2022-10-29T01:08:16.373Z,15.80
2022-10-29T01:11:04.114Z,15.90
2022-10-29T01:13:50.462Z,15.90
2022-10-29T01:16:30.677Z,15.80
2022-10-29T01:19:37.754Z,15.90
2022-10-29T01:22:36.474Z,15.70
2022-10-29T01:25:35.409Z,15.60
2022-10-29T01:28:24.018Z,15.80
2022-10-29T01:31:42.015Z,15.70
2022-10-29T01:34:26.229Z,15.80
2022-10-29T01:37:06.280Z,15.80
2022-10-29T01:39:41.536Z,15.60
2022-10-29T01:42:24.285Z,15.70
2022-10-29T01:45:04.972Z,15.70
2022-10-29T01:47:42.976Z,15.60
2022-10-29T01:50:19.217Z,15.70
2022-10-29T01:52:54.926Z,15.70
2022-10-29T01:55:33.402Z,15.80
2022-10-29T01:58:05.182Z,15.80
2022-10-29T02:01:18.763Z,15.60
2022-10-29T02:03:57.606Z,15.70
2022-10-29T02:06:57.914Z,15.40
2022-10-29T02:09:56.447Z,15.60
2022-10-29T02:12:57.452Z,15.40
2022-10-29T02:15:51.144Z,15.60
2022-10-29T02:18:23.597Z,15.50
2022-10-29T02:20:55.439Z,15.50
2022-10-29T02:23:30.972Z,15.50
2022-10-29T02:26:01.582Z,15.60
2022-10-29T02:28:34.550Z,15.60
2022-10-29T02:31:05.040Z,15.60
2022-10-29T02:33:36.906Z,15.70
2022-10-29T02:36:08.934Z,15.70
2022-10-29T02:38:40.614Z,15.60
2022-10-29T02:41:15.566Z,15.50
2022-10-29T02:43:46.112Z,15.40
2022-10-29T02:46:20.817Z,15.50
2022-10-29T02:48:52.721Z,15.60
2022-10-29T02:51:23.690Z,15.50
2022-10-29T02:53:55.382Z,15.50
2022-10-29T02:56:28.364Z,15.70
2022-10-29T02:59:02.701Z,15.60
2022-10-29T03:01:34.430Z,15.50
2022-10-29T03:04:04.084Z,15.40
2022-10-29T03:06:34.875Z,15.40
2022-10-29T03:09:07.618Z,15.40
2022-10-29T03:11:42.176Z,15.50
2022-10-29T03:14:12.272Z,15.40
2022-10-29T03:16:42.095Z,15.60
2022-10-29T03:19:13.039Z,15.50
2022-10-29T03:21:42.687Z,15.60
2022-10-29T03:24:16.743Z,15.50
2022-10-29T03:26:47.971Z,15.50
2022-10-29T03:29:21.394Z,15.40
2022-10-29T03:31:53.454Z,15.40
2022-10-29T03:34:29.291Z,15.50
2022-10-29T03:37:01.903Z,15.50
2022-10-29T03:39:35.765Z,15.60
2022-10-29T03:42:06.890Z,15.50
2022-10-29T03:44:38.576Z,15.60
2022-10-29T03:47:10.436Z,15.60
2022-10-29T03:49:42.537Z,15.60
2022-10-29T03:52:15.350Z,15.60
2022-10-29T03:54:45.323Z,15.50
2022-10-29T03:57:15.233Z,15.50
2022-10-29T03:59:49.896Z,15.40
2022-10-29T04:02:21.909Z,15.40
2022-10-29T04:04:54.058Z,15.30
2022-10-29T04:07:29.164Z,15.20
2022-10-29T04:10:04.988Z,15.30
2022-10-29T04:12:39.152Z,15.20
2022-10-29T04:15:11.143Z,15.30
2022-10-29T04:17:43.215Z,15.30
2022-10-29T04:20:29.725Z,15.20
2022-10-29T04:25:14.340Z,15.20
2022-10-29T04:28:53.930Z,15.20
2022-10-29T04:31:25.665Z,15.10
2022-10-29T04:33:57.887Z,15.10
2022-10-29T04:36:27.890Z,15.30
2022-10-29T04:39:01.796Z,15.30
2022-10-29T04:41:32.180Z,15.20
2022-10-29T04:44:04.772Z,15.30
2022-10-29T04:46:35.105Z,15.30
2022-10-29T04:49:08.441Z,15.30
2022-10-29T04:51:37.774Z,15.40
2022-10-29T04:54:08.743Z,15.30
2022-10-29T04:56:39.574Z,15.40
2022-10-29T04:59:13.034Z,15.20
2022-10-29T05:01:45.770Z,15.20
2022-10-29T05:04:17.611Z,15.10
2022-10-29T05:06:47.970Z,15.00
2022-10-29T05:09:20.527Z,15.30
2022-10-29T05:11:51.998Z,15.30
2022-10-29T05:14:23.005Z,15.30
2022-10-29T05:16:54.824Z,15.10
2022-10-29T05:19:25.765Z,15.00
2022-10-29T05:21:56.554Z,14.90
2022-10-29T05:24:29.533Z,15.00
2022-10-29T05:27:03.561Z,15.20
2022-10-29T05:29:36.807Z,15.20
2022-10-29T05:32:07.087Z,15.20
2022-10-29T05:34:38.462Z,15.20
2022-10-29T05:37:10.780Z,15.20
2022-10-29T05:39:43.299Z,15.20
2022-10-29T05:42:13.837Z,15.20
2022-10-29T05:44:43.826Z,15.20
2022-10-29T05:47:13.610Z,15.20
2022-10-29T05:49:43.638Z,15.20
2022-10-29T05:52:14.353Z,15.20
2022-10-29T05:54:45.811Z,15.20
2022-10-29T05:57:18.840Z,15.20
2022-10-29T05:59:48.405Z,15.20
2022-10-29T06:02:19.638Z,15.30
2022-10-29T06:04:52.509Z,15.20
2022-10-29T06:07:23.973Z,15.10
2022-10-29T06:09:57.176Z,15.10
2022-10-29T06:12:32.493Z,15.20
2022-10-29T06:15:06.001Z,15.20
2022-10-29T06:17:45.799Z,15.10
2022-10-29T06:20:19.131Z,14.90
2022-10-29T06:22:58.252Z,14.90
2022-10-29T06:25:29.321Z,15.20
2022-10-29T06:28:13.397Z,15.10
2022-10-29T06:30:47.209Z,15.10
2022-10-29T06:33:21.449Z,15.20
2022-10-29T06:35:51.606Z,15.00
2022-10-29T06:38:21.586Z,15.00
2022-10-29T06:41:14.065Z,15.00
2022-10-29T06:43:45.046Z,15.00
2022-10-29T06:46:14.333Z,15.00
2022-10-29T06:48:48.311Z,15.10
2022-10-29T06:51:20.294Z,15.20
2022-10-29T06:53:51.258Z,15.00
2022-10-29T06:56:23.543Z,15.00
2022-10-29T06:58:55.736Z,14.90
2022-10-29T07:01:31.720Z,14.80
2022-10-29T07:04:05.229Z,14.90
2022-10-29T07:06:38.008Z,14.90
2022-10-29T07:09:07.611Z,14.90
2022-10-29T07:11:39.852Z,14.90
2022-10-29T07:14:12.906Z,14.90
2022-10-29T07:16:48.396Z,14.80
2022-10-29T07:19:18.047Z,14.70
2022-10-29T07:21:52.316Z,14.60
2022-10-29T07:24:27.039Z,14.60
2022-10-29T07:26:57.617Z,14.70
2022-10-29T07:29:28.471Z,14.80
2022-10-29T07:31:59.112Z,14.70
2022-10-29T07:34:29.228Z,14.80
2022-10-29T07:37:00.438Z,14.90
2022-10-29T07:42:04.244Z,14.90
2022-10-29T07:44:35.411Z,14.90
2022-10-29T07:47:05.637Z,14.80
2022-10-29T07:49:38.238Z,14.90
2022-10-29T07:52:10.184Z,14.90
2022-10-29T07:54:39.364Z,14.80
2022-10-29T07:57:12.773Z,14.80
2022-10-29T07:59:44.998Z,14.90
2022-10-29T08:02:15.380Z,14.90
2022-10-29T08:04:47.046Z,14.70
2022-10-29T08:07:20.023Z,14.70
2022-10-29T08:09:50.023Z,14.60
2022-10-29T08:12:22.111Z,14.80
2022-10-29T08:14:52.922Z,14.80
2022-10-29T08:17:22.681Z,14.80
2022-10-29T08:19:53.785Z,14.70
2022-10-29T08:22:28.269Z,14.80
2022-10-29T08:24:58.308Z,14.70
2022-10-29T08:27:29.440Z,14.60
2022-10-29T08:30:00.276Z,14.70
2022-10-29T08:32:32.110Z,14.70
2022-10-29T08:35:01.614Z,14.70
2022-10-29T08:37:34.224Z,14.70
2022-10-29T08:40:04.876Z,14.60
2022-10-29T08:43:23.714Z,14.70
2022-10-29T08:45:58.424Z,14.60
2022-10-29T08:48:58.367Z,14.60
2022-10-29T08:51:38.598Z,14.80
2022-10-29T08:54:30.285Z,14.80
2022-10-29T08:57:10.165Z,14.80
2022-10-29T09:00:02.650Z,14.60
2022-10-29T09:02:32.088Z,14.70
2022-10-29T09:05:02.777Z,14.80
2022-10-29T09:07:54.424Z,14.70
2022-10-29T09:10:49.779Z,14.80
2022-10-29T09:13:34.923Z,14.80
2022-10-29T09:16:14.148Z,14.80
2022-10-29T09:19:09.554Z,14.70
2022-10-29T09:22:14.716Z,14.70
2022-10-29T09:25:16.735Z,14.60
2022-10-29T09:28:03.091Z,14.40
2022-10-29T09:30:38.514Z,14.60
2022-10-29T09:33:20.691Z,14.50
2022-10-29T09:35:56.147Z,14.70
2022-10-29T09:38:28.283Z,14.50
2022-10-29T09:41:01.332Z,14.50
2022-10-29T09:43:50.291Z,14.60
2022-10-29T09:46:40.583Z,14.50
2022-10-29T09:49:25.163Z,14.50
2022-10-29T09:52:29.963Z,14.70
2022-10-29T09:55:02.310Z,14.50
2022-10-29T09:57:39.984Z,14.50
2022-10-29T10:00:23.763Z,14.50
2022-10-29T10:03:10.436Z,14.40
2022-10-29T10:06:00.324Z,14.30
2022-10-29T10:08:35.199Z,14.40
2022-10-29T10:11:08.806Z,14.50
2022-10-29T10:13:52.435Z,14.50
2022-10-29T10:16:29.585Z,14.30
2022-10-29T10:19:04.937Z,14.30
2022-10-29T10:21:41.846Z,14.40
2022-10-29T10:24:42.862Z,14.30
2022-10-29T10:27:22.431Z,14.50
2022-10-29T10:30:12.345Z,14.30
2022-10-29T10:32:41.822Z,14.20
2022-10-29T10:35:45.518Z,14.20
2022-10-29T10:38:16.465Z,14.20
2022-10-29T10:41:02.580Z,14.30
2022-10-29T10:43:32.037Z,14.20
2022-10-29T10:46:12.874Z,14.30
2022-10-29T10:48:43.780Z,14.20
2022-10-29T10:51:22.354Z,14.20
2022-10-29T10:53:53.485Z,14.30
2022-10-29T10:56:26.191Z,14.30
2022-10-29T10:59:08.426Z,14.20
2022-10-29T11:01:49.701Z,14.20
2022-10-29T11:04:33.242Z,14.30
2022-10-29T11:07:08.146Z,14.30
2022-10-29T11:09:50.547Z,14.30
2022-10-29T11:12:45.792Z,14.30
2022-10-29T11:16:14.246Z,14.30
2022-10-29T11:19:21.118Z,14.40
2022-10-29T11:22:02.531Z,14.40
2022-10-29T11:24:44.815Z,14.40
2022-10-29T11:27:40.314Z,14.40
2022-10-29T11:30:20.057Z,14.50
2022-10-29T11:36:02.187Z,14.40
2022-10-29T11:38:54.073Z,14.40
2022-10-29T11:42:08.124Z,14.40
2022-10-29T11:44:42.774Z,14.50
2022-10-29T11:47:33.708Z,14.50
2022-10-29T11:50:04.800Z,14.40
2022-10-29T11:52:38.326Z,14.40
2022-10-29T11:55:55.242Z,14.40
2022-10-29T11:58:59.256Z,14.40
2022-10-29T12:02:07.956Z,14.60
2022-10-29T12:04:47.700Z,14.60
2022-10-29T12:07:43.661Z,14.50
2022-10-29T12:10:33.755Z,14.40
2022-10-29T12:13:22.841Z,14.50
2022-10-29T12:16:04.756Z,14.40
2022-10-29T12:18:51.711Z,14.30
2022-10-29T12:21:40.266Z,14.50
2022-10-29T12:24:31.201Z,14.40
2022-10-29T12:27:12.172Z,14.40
2022-10-29T12:29:56.148Z,14.40
2022-10-29T12:32:53.940Z,14.30
2022-10-29T12:35:34.267Z,14.40
2022-10-29T12:38:19.163Z,14.40
2022-10-29T12:40:53.654Z,14.40
2022-10-29T12:43:33.642Z,14.40
2022-10-29T12:46:20.098Z,14.60
2022-10-29T12:49:18.465Z,14.40
2022-10-29T12:52:00.201Z,14.50
2022-10-29T12:54:39.894Z,14.30
2022-10-29T12:57:17.756Z,14.50
2022-10-29T12:59:51.333Z,14.40
2022-10-29T13:02:48.306Z,14.50
2022-10-29T13:05:21.148Z,14.40
2022-10-29T13:07:52.412Z,14.40
2022-10-29T13:10:30.933Z,14.30
2022-10-29T13:13:17.761Z,14.30
2022-10-29T13:16:01.112Z,14.40
2022-10-29T13:19:06.397Z,14.40
2022-10-29T13:22:05.714Z,14.40
2022-10-29T13:24:40.649Z,14.50
2022-10-29T13:27:20.658Z,14.50
2022-10-29T13:30:13.316Z,14.60
2022-10-29T13:32:42.717Z,14.60
2022-10-29T13:35:22.662Z,14.40
2022-10-29T13:38:04.374Z,14.30
2022-10-29T13:40:34.350Z,14.50
2022-10-29T13:43:11.245Z,14.40
2022-10-29T13:45:50.150Z,14.50
2022-10-29T13:48:54.416Z,14.50
2022-10-29T13:51:45.589Z,14.40
2022-10-29T13:54:32.042Z,14.40
2022-10-29T13:57:05.093Z,14.40
2022-10-29T13:59:59.792Z,14.40
2022-10-29T14:02:46.721Z,14.40
2022-10-29T14:05:33.047Z,14.40
2022-10-29T14:08:10.892Z,14.30
2022-10-29T14:10:43.345Z,14.30
2022-10-29T14:13:19.202Z,14.50
2022-10-29T14:16:13.598Z,14.60
2022-10-29T14:18:52.657Z,14.70
2022-10-29T14:21:34.759Z,14.60
2022-10-29T14:24:08.697Z,14.60
2022-10-29T14:26:41.025Z,14.60
2022-10-29T14:29:17.499Z,14.50
2022-10-29T14:31:48.584Z,14.50
2022-10-29T14:34:31.916Z,14.70
2022-10-29T14:37:15.434Z,14.70
2022-10-29T14:39:58.861Z,14.70
2022-10-29T14:42:36.249Z,14.70
2022-10-29T14:45:31.124Z,14.80
2022-10-29T14:48:16.987Z,14.80
2022-10-29T14:50:58.679Z,14.80
2022-10-29T14:53:32.750Z,14.90
2022-10-29T14:56:12.381Z,14.80
2022-10-29T14:58:49.136Z,14.90
2022-10-29T15:01:21.906Z,14.90
2022-10-29T15:04:03.505Z,14.90
2022-10-29T15:06:33.205Z,15.00
2022-10-29T15:09:09.071Z,15.00
2022-10-29T15:11:59.539Z,15.00
2022-10-29T15:14:49.143Z,15.20
2022-10-29T15:17:29.400Z,15.30
2022-10-29T15:20:09.542Z,15.30
2022-10-29T15:22:53.714Z,15.20
2022-10-29T15:25:40.449Z,15.30
2022-10-29T15:28:13.147Z,15.50
2022-10-29T15:30:43.815Z,15.50
2022-10-29T15:33:29.237Z,15.50
2022-10-29T15:36:05.910Z,15.50
2022-10-29T15:38:52.331Z,15.50
2022-10-29T15:41:39.672Z,15.50
2022-10-29T15:44:32.605Z,15.60
2022-10-29T15:47:18.444Z,15.60
2022-10-29T15:49:50.987Z,15.70
2022-10-29T15:52:22.464Z,15.80
2022-10-29T15:54:58.438Z,15.90
2022-10-29T15:57:29.142Z,15.90
2022-10-29T16:00:11.571Z,15.90
2022-10-29T16:02:44.529Z,15.90
2022-10-29T16:05:18.102Z,16.00
2022-10-29T16:07:49.635Z,16.10
2022-10-29T16:10:22.749Z,16.00
2022-10-29T16:12:53.655Z,16.10
2022-10-29T16:18:03.914Z,16.10
2022-10-29T16:20:34.237Z,16.20
2022-10-29T16:23:05.957Z,16.30
2022-10-29T16:25:35.489Z,16.30
2022-10-29T16:28:06.614Z,16.30
2022-10-29T16:33:17.139Z,16.40
2022-10-29T16:35:48.235Z,16.40
2022-10-29T16:38:19.674Z,16.40
2022-10-29T16:40:51.613Z,16.50
2022-10-29T16:43:23.210Z,16.60
2022-10-29T16:46:04.179Z,16.60
2022-10-29T16:48:40.464Z,16.70
2022-10-29T16:51:12.934Z,16.70
2022-10-29T16:53:47.832Z,16.80
2022-10-29T16:56:19.601Z,16.80
2022-10-29T16:58:52.067Z,16.90
2022-10-29T17:01:23.110Z,17.00
2022-10-29T17:03:54.644Z,17.00
2022-10-29T17:06:24.488Z,17.00
2022-10-29T17:09:02.666Z,17.00
2022-10-29T17:11:33.139Z,17.10
2022-10-29T17:14:13.112Z,17.30
2022-10-29T17:16:43.275Z,17.40
2022-10-29T17:19:12.705Z,17.40
2022-10-29T17:21:46.436Z,17.30
2022-10-29T17:24:22.215Z,17.40
2022-10-29T17:26:53.006Z,17.50
2022-10-29T17:29:24.160Z,17.60
2022-10-29T17:32:00.785Z,17.50
2022-10-29T17:34:33.695Z,17.40
2022-10-29T17:37:08.881Z,17.50
2022-10-29T17:39:47.977Z,17.60
2022-10-29T17:42:20.567Z,17.60
2022-10-29T17:44:54.408Z,17.70
2022-10-29T17:47:24.815Z,17.90
2022-10-29T17:50:06.387Z,17.80
2022-10-29T17:52:37.519Z,17.80
2022-10-29T17:55:08.188Z,17.80
2022-10-29T17:57:42.627Z,18.00
2022-10-29T18:00:13.443Z,18.00
2022-10-29T18:02:46.325Z,17.90
2022-10-29T18:05:20.623Z,17.80
2022-10-29T18:07:51.383Z,18.00
2022-10-29T18:10:23.599Z,18.10
2022-10-29T18:12:59.943Z,18.00
2022-10-29T18:15:30.215Z,18.00
2022-10-29T18:18:01.516Z,17.90
2022-10-29T18:20:34.731Z,17.90
2022-10-29T18:23:05.573Z,17.90
2022-10-29T18:25:38.571Z,17.90
2022-10-29T18:28:08.290Z,17.90
2022-10-29T18:30:39.088Z,17.90
2022-10-29T18:35:41.362Z,18.00
2022-10-29T18:38:13.998Z,18.00
2022-10-29T18:40:45.958Z,17.90
2022-10-29T18:43:23.765Z,18.00
2022-10-29T18:46:02.250Z,17.90
2022-10-29T18:48:33.787Z,17.90
2022-10-29T18:51:09.779Z,17.90
2022-10-29T18:53:40.953Z,17.90
2022-10-29T18:56:17.178Z,17.90
2022-10-29T18:58:48.018Z,17.90
2022-10-29T19:01:21.455Z,17.90
2022-10-29T19:03:57.349Z,18.00
2022-10-29T19:06:30.353Z,17.80
2022-10-29T19:09:06.745Z,17.90
2022-10-29T19:11:39.413Z,17.90
2022-10-29T19:14:16.549Z,18.00
2022-10-29T19:16:46.262Z,17.90
2022-10-29T19:19:18.453Z,18.00
2022-10-29T19:21:52.288Z,18.10
2022-10-29T19:24:28.646Z,18.00
2022-10-29T19:27:04.412Z,18.10
2022-10-29T19:29:34.637Z,18.00
2022-10-29T19:32:05.039Z,18.00
2022-10-29T19:34:36.440Z,18.00
2022-10-29T19:37:05.905Z,18.00
2022-10-29T19:39:37.442Z,18.10
2022-10-29T19:42:20.713Z,18.10
2022-10-29T19:44:55.317Z,18.10
2022-10-29T19:47:28.198Z,18.10
2022-10-29T19:50:00.673Z,18.10
2022-10-29T19:52:34.764Z,18.10
2022-10-29T19:55:05.920Z,18.10
2022-10-29T19:57:44.123Z,18.00
2022-10-29T20:00:17.757Z,18.00
2022-10-29T20:02:48.304Z,18.10
2022-10-29T20:05:19.670Z,18.10
2022-10-29T20:07:55.577Z,18.10
2022-10-29T20:10:25.710Z,18.10
2022-10-29T20:12:57.507Z,18.10
2022-10-29T20:15:28.710Z,18.20
2022-10-29T20:18:01.399Z,18.10
2022-10-29T20:20:32.240Z,18.10
2022-10-29T20:23:03.273Z,18.10
2022-10-29T20:25:32.755Z,18.10
2022-10-29T20:28:03.565Z,18.20
2022-10-29T20:30:35.828Z,18.10
2022-10-29T20:33:08.467Z,18.10
2022-10-29T20:35:38.461Z,18.10
2022-10-29T20:38:10.060Z,18.10
2022-10-29T20:40:44.717Z,18.00
2022-10-29T20:43:15.240Z,18.10
2022-10-29T20:45:46.496Z,18.00
2022-10-29T20:48:16.785Z,18.10
2022-10-29T20:50:53.885Z,18.10
2022-10-29T20:53:25.413Z,18.20
